Time;durP1;ratioP1;P1;durP2;ratioP2;P2;SDS_P1;SDS_P2;PMS_P1;PMS_P2;Temp;Humidity;BMP_temperature;BMP_pressure;BME280_temperature;BME280_humidity;BME280_pressure;Samples;Min_cycle;Max_cycle;Signal;HPM_P1;HPM_P2
2022/03/27 00:01:32;;;;;;;15.98;7.57;;;7.40;99.90;;;;;;5020693;28;20065;-72
2022/03/27 00:03:59;;;;;;;16.13;7.90;;;7.40;99.90;;;;;;5038301;28;20024;-72
2022/03/27 00:06:27;;;;;;;17.20;9.18;;;7.40;99.90;;;;;;5038929;28;20025;-72
2022/03/27 00:08:55;;;;;;;19.90;10.75;;;7.40;99.90;;;;;;5038776;28;20314;-72
2022/03/27 00:11:26;;;;;;;20.48;10.23;;;7.40;99.90;;;;;;5038349;28;20017;-72
2022/03/27 00:13:54;;;;;;;22.23;11.85;;;7.30;99.90;;;;;;5038059;28;20029;-72
2022/03/27 00:16:24;;;;;;;24.95;11.95;;;7.30;99.90;;;;;;5020183;28;20037;-72
2022/03/27 00:18:52;;;;;;;25.80;12.63;;;7.30;99.90;;;;;;5019949;28;20413;-72
2022/03/27 00:21:22;;;;;;;27.00;11.98;;;7.30;99.90;;;;;;5020383;28;20033;-72
2022/03/27 00:23:51;;;;;;;25.75;13.10;;;7.30;99.90;;;;;;5020324;28;20022;-72
2022/03/27 00:26:19;;;;;;;24.17;13.57;;;7.30;99.90;;;;;;5038409;28;20037;-72
2022/03/27 00:28:47;;;;;;;30.50;13.68;;;7.30;99.90;;;;;;5037802;28;20030;-72
2022/03/27 00:31:14;;;;;;;28.05;13.63;;;7.30;99.90;;;;;;5037789;28;20320;-72
2022/03/27 00:33:43;;;;;;;29.75;14.23;;;7.30;99.90;;;;;;5037816;28;20405;-72
2022/03/27 00:36:13;;;;;;;29.52;13.93;;;7.30;99.90;;;;;;5037603;28;20049;-72
2022/03/27 00:38:46;;;;;;;31.10;13.27;;;7.30;99.90;;;;;;5037667;28;20022;-72
2022/03/27 00:41:17;;;;;;;27.63;13.80;;;7.30;99.90;;;;;;5038174;28;20021;-72
2022/03/27 00:43:45;;;;;;;28.77;13.93;;;7.40;99.90;;;;;;5037781;28;20379;-72
2022/03/27 00:46:12;;;;;;;27.73;13.48;;;7.40;99.90;;;;;;5020072;28;20120;-72
2022/03/27 00:48:39;;;;;;;27.35;13.93;;;7.40;99.90;;;;;;5037462;28;20057;-72
2022/03/27 00:51:07;;;;;;;25.17;13.02;;;7.50;99.90;;;;;;5038042;28;20420;-72
2022/03/27 00:53:35;;;;;;;26.27;13.40;;;7.50;99.90;;;;;;5037626;28;20436;-72
2022/03/27 00:56:03;;;;;;;29.80;13.95;;;7.60;99.90;;;;;;5019899;28;20121;-72
2022/03/27 00:58:30;;;;;;;28.15;13.00;;;7.60;99.90;;;;;;5035570;28;20421;-72
2022/03/27 01:01:15;;;;;;;27.15;12.15;;;7.70;99.90;;;;;;5019196;28;20029;-72
2022/03/27 01:03:43;;;;;;;25.20;12.88;;;7.70;99.90;;;;;;5037964;28;20087;-72
2022/03/27 01:06:36;;;;;;;25.40;12.75;;;7.80;99.90;;;;;;5019807;28;20485;-72
2022/03/27 01:11:53;;;;;;;24.02;12.15;;;7.80;99.90;;;;;;5037586;28;20028;-72
2022/03/27 01:14:32;;;;;;;28.25;12.02;;;7.80;99.90;;;;;;5037389;28;20321;-72
2022/03/27 01:17:08;;;;;;;26.67;12.48;;;7.80;99.90;;;;;;5037428;28;20071;-72
2022/03/27 01:19:46;;;;;;;27.20;13.10;;;7.80;99.90;;;;;;5037755;28;20029;-72
2022/03/27 01:22:15;;;;;;;25.13;12.25;;;7.80;99.90;;;;;;5037707;28;20056;-72
2022/03/27 01:24:42;;;;;;;24.98;12.43;;;7.80;99.90;;;;;;5019882;28;20030;-72
2022/03/27 01:27:10;;;;;;;22.80;11.20;;;7.80;99.90;;;;;;5037702;28;20442;-72
2022/03/27 01:29:40;;;;;;;25.77;12.82;;;7.80;99.90;;;;;;5037080;28;20021;-72
2022/03/27 01:32:11;;;;;;;31.63;13.70;;;7.80;99.90;;;;;;5037442;28;20469;-72
2022/03/27 01:34:38;;;;;;;25.27;12.00;;;7.80;99.90;;;;;;5036417;28;20044;-72
2022/03/27 01:37:10;;;;;;;23.38;12.05;;;7.80;99.90;;;;;;5021876;28;20029;-72
2022/03/27 01:39:38;;;;;;;25.73;13.20;;;7.80;99.90;;;;;;5023439;28;20030;-72
2022/03/27 01:42:06;;;;;;;22.38;11.48;;;7.80;99.90;;;;;;5040649;28;20029;-72
2022/03/27 01:44:34;;;;;;;23.75;12.75;;;7.80;99.90;;;;;;5040599;28;20083;-72
2022/03/27 01:47:01;;;;;;;23.02;12.32;;;7.80;99.90;;;;;;5040817;28;20052;-72
2022/03/27 01:49:29;;;;;;;31.10;13.40;;;7.80;99.90;;;;;;5041245;28;20025;-72
2022/03/27 01:51:58;;;;;;;25.23;11.90;;;7.80;99.90;;;;;;5023159;28;20029;-72
2022/03/27 01:54:26;;;;;;;23.45;12.38;;;7.80;99.90;;;;;;5040680;28;20057;-72
2022/03/27 01:56:53;;;;;;;28.33;13.45;;;7.80;99.90;;;;;;5023111;28;20033;-72
2022/03/27 01:59:21;;;;;;;27.02;13.60;;;7.80;99.90;;;;;;5040687;28;20075;-72
2022/03/27 02:01:49;;;;;;;24.67;12.93;;;7.80;99.90;;;;;;5023151;28;20432;-72
2022/03/27 02:04:16;;;;;;;22.95;12.10;;;7.70;99.90;;;;;;5039789;28;20333;-72
2022/03/27 02:06:43;;;;;;;29.90;13.93;;;7.70;99.90;;;;;;5041037;28;20313;-72
2022/03/27 02:09:12;;;;;;;25.30;13.20;;;7.80;99.90;;;;;;5040792;28;20028;-72
2022/03/27 02:11:41;;;;;;;26.48;13.30;;;7.80;99.90;;;;;;5040666;28;20400;-72
2022/03/27 02:14:09;;;;;;;25.60;12.35;;;7.70;99.90;;;;;;5039734;28;20026;-72
2022/03/27 02:16:37;;;;;;;25.92;12.27;;;7.80;99.90;;;;;;5040755;28;20104;-72
2022/03/27 02:19:12;;;;;;;28.30;12.10;;;7.80;99.90;;;;;;5040910;28;20049;-72
2022/03/27 02:21:41;;;;;;;26.52;12.82;;;7.80;99.90;;;;;;5040249;28;20108;-72
2022/03/27 02:24:09;;;;;;;28.48;12.90;;;7.80;99.90;;;;;;5021838;28;20032;-72
2022/03/27 02:26:47;;;;;;;24.67;12.00;;;7.80;99.90;;;;;;5022517;28;20026;-72
2022/03/27 02:29:16;;;;;;;23.08;11.88;;;7.80;99.90;;;;;;5040202;28;20421;-72
2022/03/27 02:31:44;;;;;;;27.10;12.20;;;7.80;99.90;;;;;;5040405;28;20029;-72
2022/03/27 02:34:12;;;;;;;25.42;13.18;;;7.80;99.90;;;;;;5040017;28;20072;-72
2022/03/27 02:36:40;;;;;;;24.23;12.88;;;7.80;99.90;;;;;;5039172;28;20345;-72
2022/03/27 02:39:08;;;;;;;23.15;12.07;;;7.80;99.90;;;;;;5040031;28;20055;-72
2022/03/27 02:41:35;;;;;;;24.65;11.25;;;7.80;99.90;;;;;;5039833;28;20033;-72
2022/03/27 02:44:03;;;;;;;25.08;11.40;;;7.80;99.90;;;;;;5022248;28;20028;-72
2022/03/27 02:46:31;;;;;;;21.92;11.00;;;7.80;99.90;;;;;;5039606;28;20047;-72
2022/03/27 02:48:59;;;;;;;24.70;11.35;;;7.80;99.90;;;;;;5039755;28;20032;-72
2022/03/27 02:51:26;;;;;;;25.75;11.85;;;7.80;99.90;;;;;;5040147;28;20076;-72
2022/03/27 02:53:53;;;;;;;24.52;12.05;;;7.80;99.90;;;;;;5039597;28;20440;-72
2022/03/27 02:56:21;;;;;;;21.15;11.10;;;7.80;99.90;;;;;;5039529;28;20113;-72
2022/03/27 02:58:48;;;;;;;25.38;11.68;;;7.80;99.90;;;;;;5039588;28;20406;-72
2022/03/27 03:01:15;;;;;;;28.50;12.15;;;7.80;99.90;;;;;;5039915;28;20045;-72
2022/03/27 03:03:43;;;;;;;25.52;12.93;;;7.80;99.90;;;;;;5039905;28;20014;-72
2022/03/27 03:06:10;;;;;;;23.27;11.82;;;7.80;99.90;;;;;;5038650;28;20071;-72
2022/03/27 03:08:41;;;;;;;21.65;11.60;;;7.70;99.90;;;;;;5039311;28;20345;-72
2022/03/27 03:11:13;;;;;;;24.27;12.02;;;7.70;99.90;;;;;;5039766;28;20135;-72
2022/03/27 03:13:41;;;;;;;22.67;11.82;;;7.70;99.90;;;;;;5040078;28;20095;-72
2022/03/27 03:16:08;;;;;;;21.80;11.55;;;7.70;99.90;;;;;;5021672;28;20436;-72
2022/03/27 03:18:36;;;;;;;21.17;11.30;;;7.70;99.90;;;;;;5039743;28;20112;-72
2022/03/27 03:21:04;;;;;;;22.45;11.15;;;7.70;99.90;;;;;;5039072;28;20021;-72
2022/03/27 03:23:32;;;;;;;25.00;11.82;;;7.60;99.90;;;;;;5039088;28;20025;-72
2022/03/27 03:26:00;;;;;;;24.90;11.30;;;7.70;99.90;;;;;;5038997;28;20030;-72
2022/03/27 03:28:31;;;;;;;23.90;12.35;;;7.70;99.90;;;;;;5039345;28;20041;-72
2022/03/27 03:30:58;;;;;;;21.05;10.85;;;7.60;99.90;;;;;;5021198;28;20026;-72
2022/03/27 03:33:29;;;;;;;19.92;11.10;;;7.60;99.90;;;;;;5038711;28;20326;-72
2022/03/27 03:35:56;;;;;;;22.98;11.20;;;7.60;99.90;;;;;;5038714;28;20433;-72
2022/03/27 03:38:23;;;;;;;21.98;10.63;;;7.60;99.90;;;;;;5038984;28;20018;-72
2022/03/27 03:40:50;;;;;;;24.85;11.93;;;7.60;99.90;;;;;;5021347;28;20051;-72
2022/03/27 03:43:20;;;;;;;23.63;12.63;;;7.60;99.90;;;;;;5039167;28;20049;-72
2022/03/27 03:45:48;;;;;;;19.02;11.40;;;7.70;99.90;;;;;;5039271;28;20021;-72
2022/03/27 03:48:16;;;;;;;19.77;10.80;;;7.60;99.90;;;;;;5020393;28;20029;-72
2022/03/27 03:50:43;;;;;;;20.38;10.65;;;7.60;99.90;;;;;;5039081;28;20376;-72
2022/03/27 03:53:10;;;;;;;22.58;11.88;;;7.60;99.90;;;;;;5038495;28;20018;-72
2022/03/27 03:55:38;;;;;;;19.77;10.40;;;7.60;99.90;;;;;;5020941;28;20325;-72
2022/03/27 03:58:06;;;;;;;24.63;12.40;;;7.60;99.90;;;;;;5038581;28;20048;-72
2022/03/27 04:00:33;;;;;;;20.50;10.82;;;7.60;99.90;;;;;;5038412;28;20048;-72
2022/03/27 04:03:04;;;;;;;21.25;10.20;;;7.60;99.90;;;;;;5020728;28;20033;-72
2022/03/27 04:05:32;;;;;;;22.13;11.20;;;7.60;99.90;;;;;;5038307;28;20064;-72
2022/03/27 04:08:00;;;;;;;22.45;11.68;;;7.50;99.90;;;;;;5038257;28;20036;-72
2022/03/27 04:10:28;;;;;;;21.58;11.35;;;7.50;99.90;;;;;;5038562;28;20313;-72
2022/03/27 04:12:55;;;;;;;19.25;11.73;;;7.50;99.90;;;;;;5038144;28;20471;-72
2022/03/27 04:15:23;;;;;;;24.30;11.00;;;7.50;99.90;;;;;;5020554;28;20037;-72
2022/03/27 04:17:51;;;;;;;21.55;10.95;;;7.40;99.90;;;;;;5020436;28;20056;-72
2022/03/27 04:20:19;;;;;;;22.10;11.50;;;7.40;99.90;;;;;;5037976;28;20040;-72
2022/03/27 04:22:46;;;;;;;18.40;10.68;;;7.40;99.90;;;;;;5038490;28;20104;-72
2022/03/27 04:25:15;;;;;;;22.80;11.27;;;7.40;99.90;;;;;;5037199;28;20061;-72
2022/03/27 04:27:42;;;;;;;22.63;11.52;;;7.40;99.90;;;;;;5037696;28;20425;-72
2022/03/27 04:30:11;;;;;;;22.63;10.70;;;7.40;99.90;;;;;;5019688;28;20025;-72
2022/03/27 04:32:39;;;;;;;24.52;10.15;;;7.40;99.90;;;;;;5020191;28;20028;-72
2022/03/27 04:35:08;;;;;;;20.13;11.23;;;7.40;99.90;;;;;;5016175;28;20050;-72
2022/03/27 04:37:40;;;;;;;18.85;9.85;;;7.40;99.90;;;;;;5018044;28;20418;-72
2022/03/27 04:40:08;;;;;;;22.30;10.20;;;7.40;99.90;;;;;;5018214;28;20025;-72
2022/03/27 04:42:36;;;;;;;20.70;10.68;;;7.40;99.90;;;;;;5017958;28;20021;-72
2022/03/27 04:45:04;;;;;;;18.63;9.52;;;7.40;99.90;;;;;;5017954;28;20117;-72
2022/03/27 04:47:31;;;;;;;25.02;12.02;;;7.40;99.90;;;;;;5017759;28;20414;-72
2022/03/27 04:49:59;;;;;;;21.42;11.32;;;7.30;99.90;;;;;;5016751;28;20034;-72
2022/03/27 04:52:26;;;;;;;24.23;12.32;;;7.40;99.90;;;;;;5017738;28;20083;-72
2022/03/27 04:54:53;;;;;;;22.17;11.07;;;7.40;99.90;;;;;;5017529;28;20029;-72
2022/03/27 04:57:21;;;;;;;22.10;12.00;;;7.40;99.90;;;;;;5016648;28;20110;-72
2022/03/27 04:59:49;;;;;;;24.20;12.07;;;7.40;99.90;;;;;;5017739;28;20026;-72
2022/03/27 05:02:17;;;;;;;23.75;10.73;;;7.40;99.90;;;;;;5016528;28;20476;-72
2022/03/27 05:04:45;;;;;;;23.17;13.00;;;7.40;99.90;;;;;;5017844;28;20120;-72
2022/03/27 05:07:12;;;;;;;21.13;11.30;;;7.30;99.90;;;;;;5017490;28;20096;-72
2022/03/27 05:09:40;;;;;;;22.92;11.25;;;7.30;99.90;;;;;;5017984;28;20022;-72
2022/03/27 05:12:08;;;;;;;20.25;10.88;;;7.30;99.90;;;;;;5020198;28;20029;-72
2022/03/27 05:14:36;;;;;;;21.30;11.80;;;7.30;99.90;;;;;;5022368;28;20046;-72
2022/03/27 05:17:04;;;;;;;21.27;11.43;;;7.30;99.90;;;;;;5021524;28;20026;-72
2022/03/27 05:19:32;;;;;;;21.98;11.52;;;7.30;99.90;;;;;;5020567;28;20036;-72
2022/03/27 05:22:00;;;;;;;27.65;11.60;;;7.30;99.90;;;;;;5021481;28;20018;-72
2022/03/27 05:24:28;;;;;;;25.25;11.57;;;7.30;99.90;;;;;;5022173;28;20105;-73
2022/03/27 05:26:55;;;;;;;23.35;11.35;;;7.30;99.90;;;;;;5020356;28;20037;-74
2022/03/27 05:29:22;;;;;;;24.08;12.20;;;7.30;99.90;;;;;;5020168;28;20026;-73
2022/03/27 05:31:51;;;;;;;23.88;12.52;;;7.30;99.90;;;;;;5020211;28;20033;-73
2022/03/27 05:34:19;;;;;;;29.73;12.35;;;7.40;99.90;;;;;;5019780;28;20022;-73
2022/03/27 05:36:46;;;;;;;27.27;11.93;;;7.40;99.90;;;;;;5040257;28;20034;-73
2022/03/27 05:39:14;;;;;;;22.65;11.52;;;7.40;99.90;;;;;;5041185;28;20045;-73
2022/03/27 05:41:41;;;;;;;24.00;11.30;;;7.40;99.90;;;;;;5041192;28;20022;-73
2022/03/27 05:44:09;;;;;;;25.27;11.05;;;7.40;99.90;;;;;;5033913;28;20033;-73
2022/03/27 05:46:36;;;;;;;21.30;11.27;;;7.40;99.90;;;;;;5023599;28;20351;-73
2022/03/27 05:49:03;;;;;;;23.65;12.15;;;7.40;99.90;;;;;;5041441;28;20463;-73
2022/03/27 05:51:31;;;;;;;22.17;11.55;;;7.40;99.90;;;;;;5022404;28;20029;-73
2022/03/27 05:53:58;;;;;;;23.55;11.48;;;7.40;99.90;;;;;;5022670;28;20028;-73
2022/03/27 05:56:26;;;;;;;24.40;11.48;;;7.40;99.90;;;;;;5040684;28;20027;-73
2022/03/27 05:58:53;;;;;;;24.02;12.18;;;7.40;99.90;;;;;;5040860;28;20321;-73
2022/03/27 06:01:20;;;;;;;23.70;11.13;;;7.40;99.90;;;;;;5040636;28;20168;-73
2022/03/27 06:03:47;;;;;;;26.65;12.00;;;7.40;99.90;;;;;;5039882;28;20104;-73
2022/03/27 06:06:15;;;;;;;20.88;11.48;;;7.30;99.90;;;;;;5041050;28;20043;-73
2022/03/27 06:08:43;;;;;;;25.33;12.63;;;7.40;99.90;;;;;;5041231;28;20079;-73
2022/03/27 06:11:10;;;;;;;22.55;11.93;;;7.40;99.90;;;;;;5040634;28;20326;-75
2022/03/27 06:13:38;;;;;;;22.35;11.90;;;7.40;99.90;;;;;;5040420;28;20026;-75
2022/03/27 06:16:06;;;;;;;22.30;11.60;;;7.40;99.90;;;;;;5022690;28;20021;-72
2022/03/27 06:18:33;;;;;;;27.15;12.30;;;7.50;99.90;;;;;;5040392;28;20021;-73
2022/03/27 06:21:00;;;;;;;22.27;12.85;;;7.50;99.90;;;;;;5040656;28;20075;-72
2022/03/27 06:23:28;;;;;;;23.88;12.73;;;7.50;99.90;;;;;;5040386;28;20048;-72
2022/03/27 06:25:56;;;;;;;23.45;11.25;;;7.40;99.90;;;;;;5022796;28;20116;-76
2022/03/27 06:28:23;;;;;;;20.60;10.80;;;7.50;99.90;;;;;;5040605;28;20029;-75
2022/03/27 06:30:51;;;;;;;22.63;10.68;;;7.40;99.90;;;;;;5040669;28;20029;-76
2022/03/27 06:33:18;;;;;;;24.85;11.98;;;7.40;99.90;;;;;;5040148;28;20383;-72
2022/03/27 06:35:45;;;;;;;25.90;12.70;;;7.40;99.90;;;;;;5039244;28;20042;-72
2022/03/27 06:38:13;;;;;;;31.05;13.13;;;7.40;99.90;;;;;;5039119;28;20422;-73
2022/03/27 06:40:40;;;;;;;26.77;12.55;;;7.40;99.90;;;;;;5040039;28;20029;-73
2022/03/27 06:43:08;;;;;;;27.63;12.85;;;7.50;99.90;;;;;;5022374;28;20030;-70
2022/03/27 06:45:35;;;;;;;28.15;13.82;;;7.60;99.90;;;;;;5039823;28;20040;-70
2022/03/27 06:48:03;;;;;;;24.00;12.18;;;7.60;99.90;;;;;;5022304;28;20095;-71
2022/03/27 06:50:30;;;;;;;25.33;11.77;;;7.70;99.90;;;;;;5039563;28;20061;-70
2022/03/27 06:52:58;;;;;;;26.23;12.90;;;7.70;99.90;;;;;;5040152;28;20095;-70
2022/03/27 06:55:27;;;;;;;27.50;11.88;;;7.70;99.90;;;;;;5040048;28;20024;-67
2022/03/27 06:57:54;;;;;;;27.60;12.38;;;7.80;99.90;;;;;;5021986;28;20318;-69
2022/03/27 07:03:09;;;;;;;21.52;10.85;;;7.90;99.90;;;;;;5039413;28;20028;-68
2022/03/27 07:05:42;;;;;;;26.98;12.73;;;7.90;99.90;;;;;;5021870;28;20030;-69
2022/03/27 07:08:14;;;;;;;21.60;11.52;;;8.00;99.90;;;;;;5021722;28;20418;-68
2022/03/27 07:10:43;;;;;;;22.10;11.90;;;8.00;99.90;;;;;;5021694;28;20031;-68
2022/03/27 07:13:12;;;;;;;23.67;11.88;;;8.10;99.90;;;;;;5039193;28;20071;-68
2022/03/27 07:15:40;;;;;;;24.17;12.50;;;8.10;99.90;;;;;;5021565;28;20044;-69
2022/03/27 07:18:08;;;;;;;24.40;12.13;;;8.20;99.90;;;;;;5038780;28;20365;-70
2022/03/27 07:20:38;;;;;;;25.98;11.80;;;8.20;99.90;;;;;;5039512;28;20033;-70
2022/03/27 07:23:09;;;;;;;23.20;12.38;;;8.20;99.90;;;;;;5038964;28;20056;-70
2022/03/27 07:25:39;;;;;;;21.83;11.65;;;8.30;99.90;;;;;;5039067;28;20052;-69
2022/03/27 07:28:09;;;;;;;20.65;12.07;;;8.30;99.90;;;;;;5038864;28;20029;-69
2022/03/27 07:30:37;;;;;;;22.50;11.20;;;8.40;99.90;;;;;;5038792;28;20361;-68
2022/03/27 07:33:05;;;;;;;22.95;12.30;;;8.40;99.90;;;;;;5038666;28;20021;-68
2022/03/27 07:35:32;;;;;;;22.35;10.65;;;8.50;99.90;;;;;;5038826;28;20450;-68
2022/03/27 07:38:01;;;;;;;18.48;9.63;;;8.50;99.90;;;;;;5039587;28;20026;-68
2022/03/27 07:40:29;;;;;;;22.58;11.25;;;8.60;99.90;;;;;;5021138;28;20021;-68
2022/03/27 07:43:00;;;;;;;20.02;11.02;;;8.70;99.90;;;;;;5039116;28;20028;-69
2022/03/27 07:45:30;;;;;;;21.75;11.13;;;8.70;99.90;;;;;;5038817;28;20033;-69
2022/03/27 07:47:58;;;;;;;22.13;10.82;;;8.80;99.90;;;;;;5039012;28;20056;-69
2022/03/27 07:50:30;;;;;;;20.13;10.77;;;8.80;99.90;;;;;;5038691;28;20384;-69
2022/03/27 07:52:59;;;;;;;21.17;11.15;;;8.90;99.90;;;;;;5038448;28;20483;-71
2022/03/27 07:55:27;;;;;;;18.02;9.85;;;8.90;99.90;;;;;;5038620;28;20022;-67
2022/03/27 07:57:56;;;;;;;21.50;10.65;;;9.00;99.90;;;;;;5021187;28;20018;-69
2022/03/27 08:00:24;;;;;;;20.17;10.30;;;9.00;99.90;;;;;;5037709;28;20057;-71
2022/03/27 08:02:52;;;;;;;18.88;11.00;;;9.10;99.90;;;;;;5020751;28;20495;-71
2022/03/27 08:05:24;;;;;;;21.38;11.18;;;9.10;99.90;;;;;;5038351;28;20034;-71
2022/03/27 08:07:52;;;;;;;18.80;10.77;;;9.20;99.90;;;;;;5038201;28;20059;-72
2022/03/27 08:10:20;;;;;;;20.63;10.77;;;9.30;99.90;;;;;;5020572;28;20476;-68
2022/03/27 08:12:48;;;;;;;22.35;11.35;;;9.30;99.90;;;;;;5038575;28;20021;-72
2022/03/27 08:15:17;;;;;;;21.58;10.88;;;9.40;99.90;;;;;;5038216;28;20059;-71
2022/03/27 08:17:45;;;;;;;21.33;10.93;;;9.40;99.90;;;;;;5037879;28;20022;-71
2022/03/27 08:20:12;;;;;;;25.45;11.82;;;9.50;99.90;;;;;;5038262;28;20320;-71
2022/03/27 08:22:39;;;;;;;21.05;11.23;;;9.50;99.90;;;;;;5020343;28;20025;-71
2022/03/27 08:25:07;;;;;;;21.65;11.40;;;9.60;99.90;;;;;;5037841;28;20060;-71
2022/03/27 08:27:34;;;;;;;22.52;12.68;;;9.60;99.90;;;;;;5020323;28;20447;-72
2022/03/27 08:30:03;;;;;;;20.88;10.95;;;9.70;99.90;;;;;;5020226;28;20025;-73
2022/03/27 08:32:30;;;;;;;19.35;10.90;;;9.80;99.90;;;;;;5038022;28;20029;-72
2022/03/27 08:35:00;;;;;;;17.70;10.25;;;9.80;99.90;;;;;;5037563;28;20092;-70
2022/03/27 08:37:30;;;;;;;22.15;11.27;;;9.90;99.90;;;;;;5037781;28;20045;-72
2022/03/27 08:39:58;;;;;;;17.02;10.07;;;9.90;99.90;;;;;;5036805;28;20033;-72
2022/03/27 08:42:26;;;;;;;26.33;11.52;;;9.90;99.90;;;;;;5037331;28;20436;-71
2022/03/27 08:44:53;;;;;;;20.13;11.13;;;10.00;99.90;;;;;;5020074;28;20049;-73
2022/03/27 08:47:26;;;;;;;18.83;11.00;;;10.00;99.90;;;;;;5037454;28;20021;-71
2022/03/27 08:50:02;;;;;;;19.98;10.57;;;10.10;99.90;;;;;;5037524;28;20060;-70
2022/03/27 08:52:54;;;;;;;20.80;10.65;;;10.30;99.90;;;;;;5020166;28;20364;-74
2022/03/27 08:55:45;;;;;;;21.38;10.82;;;10.40;99.90;;;;;;5037425;28;20140;-72
2022/03/27 08:58:13;;;;;;;21.55;10.85;;;10.50;99.90;;;;;;5037704;28;20048;-75
2022/03/27 09:00:41;;;;;;;20.77;11.13;;;10.60;99.90;;;;;;5037450;28;20413;-72
2022/03/27 09:03:09;;;;;;;18.55;10.50;;;10.70;99.90;;;;;;5037276;28;20033;-70
2022/03/27 09:05:37;;;;;;;18.50;10.55;;;10.80;99.90;;;;;;5038095;28;20025;-72
2022/03/27 09:08:09;;;;;;;17.52;9.35;;;11.00;99.90;;;;;;5037856;28;20021;-70
2022/03/27 09:10:38;;;;;;;18.92;10.70;;;11.10;99.90;;;;;;5037213;28;20113;-71
2022/03/27 09:13:17;;;;;;;18.65;10.52;;;11.30;99.90;;;;;;5019677;28;20299;-71
2022/03/27 09:15:45;;;;;;;18.05;10.10;;;11.50;99.90;;;;;;5037408;28;20056;-72
2022/03/27 09:18:15;;;;;;;16.27;10.32;;;11.60;99.90;;;;;;5019614;28;20056;-72
2022/03/27 09:20:47;;;;;;;15.32;9.43;;;11.70;99.90;;;;;;5019610;28;20056;-72
2022/03/27 09:23:30;;;;;;;17.48;10.02;;;11.90;99.90;;;;;;5036459;28;20024;-72
2022/03/27 09:26:17;;;;;;;15.40;9.27;;;12.00;99.90;;;;;;5037099;28;20025;-70
2022/03/27 09:28:53;;;;;;;15.88;10.20;;;12.20;99.90;;;;;;5037882;28;20433;-71
2022/03/27 09:31:26;;;;;;;13.95;8.75;;;12.20;99.90;;;;;;5037049;28;20079;-74
2022/03/27 09:33:59;;;;;;;16.02;9.38;;;12.30;99.90;;;;;;5037115;28;20028;-75
2022/03/27 09:36:29;;;;;;;16.80;9.15;;;12.30;99.90;;;;;;5015971;28;20129;-75
2022/03/27 09:39:13;;;;;;;17.13;8.75;;;12.40;99.90;;;;;;5017312;28;20319;-75
2022/03/27 09:42:00;;;;;;;16.75;9.13;;;12.50;99.90;;;;;;5017496;28;20021;-74
2022/03/27 09:44:36;;;;;;;14.40;9.02;;;12.60;99.90;;;;;;5017354;28;20025;-82
2022/03/27 09:47:10;;;;;;;15.52;9.35;;;12.70;99.90;;;;;;5017220;28;20049;-71
2022/03/27 09:49:41;;;;;;;14.73;8.45;;;12.80;99.90;;;;;;5017606;28;20030;-68
2022/03/27 09:52:17;;;;;;;17.10;9.55;;;12.90;99.90;;;;;;5016132;28;20030;-71
2022/03/27 09:54:54;;;;;;;16.95;9.65;;;13.10;99.90;;;;;;5017126;28;20014;-72
2022/03/27 09:57:34;;;;;;;15.65;8.95;;;13.20;99.90;;;;;;5017782;28;20026;-77
2022/03/27 10:00:19;;;;;;;15.65;8.90;;;13.40;99.90;;;;;;5019990;28;20057;-77
2022/03/27 10:02:51;;;;;;;14.65;8.15;;;13.60;99.90;;;;;;5019390;28;20026;-74
2022/03/27 10:05:19;;;;;;;14.05;8.23;;;13.60;99.90;;;;;;5020173;28;20109;-74
2022/03/27 10:07:56;;;;;;;15.48;8.85;;;13.60;99.90;;;;;;5021218;28;20022;-73
2022/03/27 10:10:26;;;;;;;15.40;8.50;;;13.40;99.90;;;;;;5021255;28;20033;-74
2022/03/27 10:12:59;;;;;;;10.48;7.03;;;13.40;99.90;;;;;;5020554;28;20441;-73
2022/03/27 10:15:29;;;;;;;14.35;7.95;;;13.40;99.90;;;;;;5019741;28;20318;-74
2022/03/27 10:18:01;;;;;;;12.73;7.28;;;13.30;99.90;;;;;;5019341;28;20110;-74
2022/03/27 10:20:35;;;;;;;15.93;8.77;;;13.30;99.90;;;;;;5019481;28;20083;-74
2022/03/27 10:23:23;;;;;;;13.23;7.75;;;13.30;99.90;;;;;;5020381;28;20125;-73
2022/03/27 10:26:01;;;;;;;14.57;7.85;;;13.20;99.90;;;;;;5019270;28;20026;-77
2022/03/27 10:28:29;;;;;;;13.68;8.40;;;13.00;99.90;;;;;;5020595;28;20064;-74
2022/03/27 10:30:56;;;;;;;16.13;8.38;;;12.80;99.90;;;;;;5020153;28;20025;-78
2022/03/27 10:33:26;;;;;;;14.50;8.55;;;12.60;99.90;;;;;;5018643;28;20029;-77
2022/03/27 10:36:19;;;;;;;13.88;8.55;;;12.50;99.90;;;;;;5031582;28;20038;-77
2022/03/27 10:39:05;;;;;;;15.27;8.18;;;12.30;99.90;;;;;;5040193;28;20013;-77
2022/03/27 10:41:54;;;;;;;13.25;8.13;;;12.10;99.90;;;;;;5039879;28;20025;-77
2022/03/27 10:44:41;;;;;;;13.73;8.00;;;12.00;99.90;;;;;;5039838;28;20220;-77
2022/03/27 10:47:21;;;;;;;12.18;7.88;;;11.90;99.90;;;;;;5016390;28;20029;-78
2022/03/27 10:50:08;;;;;;;13.90;7.70;;;11.80;99.90;;;;;;5022097;28;20333;-75
2022/03/27 10:52:43;;;;;;;13.55;8.02;;;11.70;99.90;;;;;;5039851;28;20439;-78
2022/03/27 10:55:16;;;;;;;12.25;7.65;;;11.80;99.90;;;;;;5021950;28;20052;-71
2022/03/27 10:57:46;;;;;;;11.23;7.15;;;11.70;99.90;;;;;;5039883;28;20031;-71
2022/03/27 11:00:15;;;;;;;12.02;6.75;;;11.70;99.90;;;;;;5039403;28;20441;-73
2022/03/27 11:02:53;;;;;;;14.15;7.20;;;11.70;99.90;;;;;;5039636;28;20029;-75
2022/03/27 11:05:36;;;;;;;13.55;7.32;;;11.80;99.90;;;;;;5021731;28;20025;-75
2022/03/27 11:08:19;;;;;;;15.30;8.73;;;11.90;99.90;;;;;;5038698;28;20025;-72
2022/03/27 11:10:52;;;;;;;13.98;7.88;;;12.00;99.90;;;;;;5039464;28;20025;-71
2022/03/27 11:13:31;;;;;;;13.45;7.70;;;12.10;99.90;;;;;;5039649;28;20094;-71
2022/03/27 11:16:03;;;;;;;10.52;6.35;;;12.20;99.90;;;;;;5021565;28;20117;-71
2022/03/27 11:18:43;;;;;;;11.75;6.78;;;12.30;99.90;;;;;;5021563;28;20410;-72
2022/03/27 11:21:14;;;;;;;10.52;6.20;;;12.40;99.90;;;;;;5039140;28;20029;-72
2022/03/27 11:23:42;;;;;;;11.18;6.10;;;12.50;99.90;;;;;;5039844;28;20393;-72
2022/03/27 11:26:23;;;;;;;12.00;6.85;;;12.60;99.90;;;;;;5039059;28;20053;-71
2022/03/27 11:28:52;;;;;;;12.43;6.80;;;12.70;99.90;;;;;;5038940;28;20021;-72
2022/03/27 11:31:23;;;;;;;12.88;6.55;;;12.80;99.90;;;;;;5021318;28;20056;-71
2022/03/27 11:34:07;;;;;;;12.32;7.60;;;12.90;99.90;;;;;;5038917;28;20108;-71
2022/03/27 11:36:37;;;;;;;12.77;7.13;;;13.00;99.90;;;;;;5038672;28;20148;-71
2022/03/27 11:39:13;;;;;;;12.60;6.63;;;13.10;99.90;;;;;;5021449;28;20387;-72
2022/03/27 11:41:45;;;;;;;14.70;6.57;;;13.20;99.90;;;;;;5039300;28;20105;-71
2022/03/27 11:44:18;;;;;;;10.40;6.40;;;13.20;99.90;;;;;;5038870;28;20026;-71
2022/03/27 11:46:53;;;;;;;11.07;6.80;;;13.30;99.90;;;;;;5021082;28;20032;-72
2022/03/27 11:49:23;;;;;;;11.55;6.90;;;13.40;99.90;;;;;;5020968;28;20036;-71
2022/03/27 11:52:14;;;;;;;10.57;5.88;;;13.40;99.90;;;;;;5038788;28;20483;-71
2022/03/27 11:54:42;;;;;;;10.45;6.20;;;13.50;99.90;;;;;;5038839;28;20368;-72
2022/03/27 11:57:11;;;;;;;10.25;6.68;;;13.50;99.90;;;;;;5038414;28;20014;-71
2022/03/27 11:59:50;;;;;;;9.95;5.93;;;13.60;99.90;;;;;;5038863;28;20391;-72
2022/03/27 12:02:19;;;;;;;10.93;6.55;;;13.70;99.90;;;;;;5038208;28;20025;-71
2022/03/27 12:04:53;;;;;;;10.70;6.57;;;13.80;99.90;;;;;;5020807;28;20032;-72
2022/03/27 12:07:22;;;;;;;10.10;5.65;;;13.90;99.90;;;;;;5038124;28;20021;-71
2022/03/27 12:10:01;;;;;;;10.15;6.25;;;14.00;99.90;;;;;;5038534;28;20021;-71
2022/03/27 12:12:32;;;;;;;9.88;5.32;;;14.10;99.90;;;;;;5037442;28;20093;-72
2022/03/27 12:15:09;;;;;;;8.48;5.10;;;14.20;99.90;;;;;;5037980;28;20021;-72
2022/03/27 12:17:46;;;;;;;9.27;5.65;;;14.20;99.90;;;;;;5037938;28;20385;-72
2022/03/27 12:20:15;;;;;;;5.07;3.08;;;14.20;99.90;;;;;;5038052;28;20049;-72
2022/03/27 12:22:51;;;;;;;6.65;3.78;;;14.30;99.90;;;;;;5020354;28;20095;-72
2022/03/27 12:25:28;;;;;;;6.63;4.07;;;14.30;99.90;;;;;;5037975;28;20021;-72
2022/03/27 12:30:49;;;;;;;8.10;4.70;;;14.50;99.90;;;;;;5037921;28;20117;-72
2022/03/27 12:33:21;;;;;;;5.88;4.13;;;14.60;99.90;;;;;;5037527;28;20017;-70
2022/03/27 12:36:03;;;;;;;6.45;4.18;;;14.60;99.90;;;;;;5037471;28;20088;-71
2022/03/27 12:38:34;;;;;;;7.43;4.38;;;14.70;99.90;;;;;;5038313;28;20032;-72
2022/03/27 12:41:08;;;;;;;7.82;4.88;;;14.80;99.90;;;;;;5038176;28;20072;-71
2022/03/27 12:43:35;;;;;;;9.90;5.40;;;14.80;99.90;;;;;;5020166;28;20060;-72
2022/03/27 12:46:23;;;;;;;8.70;5.18;;;14.90;99.90;;;;;;5037777;28;20325;-72
2022/03/27 12:49:09;;;;;;;8.48;5.20;;;15.00;99.90;;;;;;5037603;28;20025;-71
2022/03/27 12:51:38;;;;;;;7.97;4.90;;;15.10;99.90;;;;;;5037821;28;20413;-72
2022/03/27 12:54:11;;;;;;;6.93;4.32;;;15.10;99.90;;;;;;5019767;28;20382;-72
2022/03/27 12:56:57;;;;;;;8.75;5.18;;;15.10;99.90;;;;;;5037207;28;20017;-71
2022/03/27 12:59:24;;;;;;;8.93;5.88;;;15.20;99.90;;;;;;5037844;28;20101;-71
2022/03/27 13:01:52;;;;;;;10.90;5.55;;;15.20;99.90;;;;;;5038148;28;20025;-71
2022/03/27 13:04:20;;;;;;;8.73;4.90;;;15.30;99.90;;;;;;5037759;28;20049;-71